createdAt,value
2022-09-09T00:01:44.285Z,25.30
2022-09-09T00:04:31.945Z,25.30
2022-09-09T00:07:19.262Z,25.30
2022-09-09T00:09:52.140Z,25.30
2022-09-09T00:12:32.096Z,25.40
2022-09-09T00:15:09.734Z,25.40
2022-09-09T00:17:43.637Z,25.50
2022-09-09T00:20:30.955Z,25.40
2022-09-09T00:23:13.307Z,25.40
2022-09-09T00:26:00.766Z,25.50
2022-09-09T00:28:31.693Z,25.40
2022-09-09T00:31:12.117Z,25.50
2022-09-09T00:33:41.214Z,25.50
2022-09-09T00:36:14.887Z,25.50
2022-09-09T00:38:44.756Z,25.60
2022-09-09T00:41:16.373Z,25.60
2022-09-09T00:43:44.850Z,25.60
2022-09-09T00:46:26.302Z,25.60
2022-09-09T00:49:07.501Z,25.60
2022-09-09T00:51:48.371Z,25.60
2022-09-09T00:54:23.488Z,25.60
2022-09-09T00:57:05.423Z,25.70
2022-09-09T00:59:45.336Z,25.60
2022-09-09T01:02:18.237Z,25.70
2022-09-09T01:04:46.032Z,25.80
2022-09-09T01:07:19.124Z,25.80
2022-09-09T01:09:54.078Z,25.80
2022-09-09T01:12:31.966Z,25.80
2022-09-09T01:15:13.067Z,25.80
2022-09-09T01:17:50.825Z,25.80
2022-09-09T01:20:23.109Z,25.90
2022-09-09T01:23:10.471Z,25.90
2022-09-09T01:25:58.441Z,25.90
2022-09-09T01:28:34.891Z,26.00
2022-09-09T01:31:04.891Z,26.00
2022-09-09T01:33:33.128Z,26.00
2022-09-09T01:36:12.810Z,26.00
2022-09-09T01:38:41.813Z,26.10
2022-09-09T01:41:09.884Z,26.10
2022-09-09T01:43:38.431Z,26.10
2022-09-09T01:46:06.774Z,26.10
2022-09-09T01:48:36.795Z,26.10
2022-09-09T01:51:05.639Z,26.10
2022-09-09T01:53:35.345Z,26.10
2022-09-09T01:56:23.112Z,26.10
2022-09-09T01:59:06.315Z,26.10
2022-09-09T02:01:45.930Z,26.20
2022-09-09T02:04:20.448Z,26.30
2022-09-09T02:06:50.451Z,26.40
2022-09-09T02:09:22.712Z,26.40
2022-09-09T02:11:55.314Z,26.50
2022-09-09T02:14:27.892Z,26.60
2022-09-09T02:16:58.753Z,26.60
2022-09-09T02:19:38.888Z,26.60
2022-09-09T02:22:11.380Z,26.60
2022-09-09T02:24:42.055Z,26.70
2022-09-09T02:27:11.011Z,26.70
2022-09-09T02:29:42.757Z,26.80
2022-09-09T02:32:13.115Z,26.80
2022-09-09T02:34:43.985Z,26.80
2022-09-09T02:37:13.321Z,26.80
2022-09-09T02:39:53.750Z,26.80
2022-09-09T02:42:21.935Z,26.80
2022-09-09T02:44:51.003Z,26.80
2022-09-09T02:47:33.148Z,26.80
2022-09-09T02:50:16.156Z,26.80
2022-09-09T02:52:51.797Z,26.80
2022-09-09T02:55:32.016Z,26.80
2022-09-09T02:58:01.390Z,26.70
2022-09-09T03:00:35.215Z,26.70
2022-09-09T03:03:07.461Z,26.60
2022-09-09T03:05:35.823Z,26.60
2022-09-09T03:08:04.877Z,26.50
2022-09-09T03:10:38.314Z,26.50
2022-09-09T03:13:07.279Z,26.50
2022-09-09T03:15:38.783Z,26.50
2022-09-09T03:18:07.160Z,26.50
2022-09-09T03:20:38.074Z,26.50
2022-09-09T03:23:05.887Z,26.40
2022-09-09T03:25:35.892Z,26.40
2022-09-09T03:28:03.745Z,26.40
2022-09-09T03:30:35.734Z,26.40
2022-09-09T03:33:03.607Z,26.40
2022-09-09T03:35:31.399Z,26.40
2022-09-09T03:37:59.379Z,26.40
2022-09-09T03:40:41.786Z,26.40
2022-09-09T03:43:11.207Z,26.40
2022-09-09T03:45:40.013Z,26.30
2022-09-09T03:48:08.338Z,26.30
2022-09-09T03:50:39.341Z,26.30
2022-09-09T03:53:07.559Z,26.20
2022-09-09T03:55:35.327Z,26.20
2022-09-09T03:58:06.281Z,26.20
2022-09-09T04:00:34.155Z,26.10
2022-09-09T04:03:03.800Z,26.10
2022-09-09T04:05:33.923Z,26.00
2022-09-09T04:08:02.869Z,26.00
2022-09-09T04:10:31.343Z,26.00
2022-09-09T04:12:59.085Z,26.00
2022-09-09T04:15:27.347Z,25.90
2022-09-09T04:17:58.355Z,25.90
2022-09-09T04:20:26.500Z,25.90
2022-09-09T04:22:54.393Z,26.00
2022-09-09T04:25:22.297Z,26.00
2022-09-09T04:27:59.531Z,26.00
2022-09-09T04:33:58.442Z,26.10
2022-09-09T04:36:26.271Z,26.20
2022-09-09T04:38:54.961Z,26.20
2022-09-09T04:41:23.497Z,26.30
2022-09-09T04:43:51.717Z,26.30
2022-09-09T04:46:24.532Z,26.40
2022-09-09T04:48:53.585Z,26.40
2022-09-09T04:51:21.581Z,26.50
2022-09-09T04:53:51.208Z,26.50
2022-09-09T04:56:20.306Z,26.50
2022-09-09T04:58:58.509Z,26.60
2022-09-09T05:04:38.837Z,26.70
2022-09-09T05:07:07.202Z,26.80
2022-09-09T05:09:38.159Z,26.80
2022-09-09T05:12:07.246Z,26.80
2022-09-09T05:14:35.210Z,26.80
2022-09-09T05:17:07.454Z,26.80
2022-09-09T05:19:43.974Z,26.80
2022-09-09T05:22:13.363Z,26.80
2022-09-09T05:24:41.557Z,26.80
2022-09-09T05:27:12.899Z,26.80
2022-09-09T05:29:43.683Z,26.80
2022-09-09T05:32:18.578Z,26.80
2022-09-09T05:34:55.468Z,26.80
2022-09-09T05:37:27.292Z,26.80
2022-09-09T05:39:57.667Z,26.80
2022-09-09T05:42:26.597Z,26.80
2022-09-09T05:44:57.497Z,26.80
2022-09-09T05:47:29.543Z,26.80
2022-09-09T05:50:01.885Z,26.80
2022-09-09T05:52:31.516Z,26.80
2022-09-09T05:55:00.936Z,26.70
2022-09-09T05:57:30.861Z,26.70
2022-09-09T06:00:01.870Z,26.70
2022-09-09T06:02:30.465Z,26.70
2022-09-09T06:05:02.764Z,26.70
2022-09-09T06:07:30.352Z,26.60
2022-09-09T06:09:58.774Z,26.60
2022-09-09T06:12:28.036Z,26.60
2022-09-09T06:14:55.811Z,26.70
2022-09-09T06:17:23.706Z,26.80
2022-09-09T06:19:58.093Z,26.80
2022-09-09T06:22:28.335Z,26.90
2022-09-09T06:25:18.530Z,27.00
2022-09-09T06:27:53.482Z,27.00
2022-09-09T06:30:21.582Z,27.10
2022-09-09T06:32:52.523Z,27.10
2022-09-09T06:35:21.954Z,27.10
2022-09-09T06:37:50.324Z,27.10
2022-09-09T06:40:19.064Z,27.10
2022-09-09T06:42:56.745Z,27.10
2022-09-09T06:45:24.751Z,27.00
2022-09-09T06:47:54.289Z,27.10
2022-09-09T06:50:23.075Z,27.00
2022-09-09T06:52:52.631Z,27.00
2022-09-09T06:55:20.843Z,27.00
2022-09-09T06:57:50.723Z,27.00
2022-09-09T07:00:20.890Z,27.00
2022-09-09T07:02:49.885Z,26.90
2022-09-09T07:05:18.136Z,26.80
2022-09-09T07:07:46.809Z,26.80
2022-09-09T07:10:15.409Z,26.80
2022-09-09T07:12:46.753Z,26.70
2022-09-09T07:15:15.549Z,26.60
2022-09-09T07:17:43.725Z,26.60
2022-09-09T07:20:13.297Z,26.60
2022-09-09T07:22:41.112Z,26.60
2022-09-09T07:25:09.521Z,26.50
2022-09-09T07:27:37.438Z,26.40
2022-09-09T07:30:05.608Z,26.40
2022-09-09T07:32:33.295Z,26.50
2022-09-09T07:35:01.477Z,26.50
2022-09-09T07:37:29.245Z,26.50
2022-09-09T07:40:11.086Z,26.40
2022-09-09T07:42:42.135Z,26.50
2022-09-09T07:45:11.771Z,26.50
2022-09-09T07:47:39.616Z,26.50
2022-09-09T07:50:07.591Z,26.50
2022-09-09T07:52:35.653Z,26.50
2022-09-09T07:55:04.128Z,26.50
2022-09-09T07:57:32.188Z,26.60
2022-09-09T08:00:00.181Z,26.60
2022-09-09T08:02:30.704Z,26.60
2022-09-09T08:04:58.505Z,26.60
2022-09-09T08:07:27.313Z,26.60
2022-09-09T08:09:57.019Z,26.60
2022-09-09T08:12:24.809Z,26.60
2022-09-09T08:14:55.659Z,26.60
2022-09-09T08:17:24.645Z,26.70
2022-09-09T08:19:55.379Z,26.70
2022-09-09T08:22:27.653Z,26.70
2022-09-09T08:24:55.740Z,26.70
2022-09-09T08:27:24.172Z,26.60
2022-09-09T08:29:53.039Z,26.60
2022-09-09T08:32:20.853Z,26.60
2022-09-09T08:34:54.664Z,26.60
2022-09-09T08:37:23.205Z,26.60
2022-09-09T08:39:54.025Z,26.50
2022-09-09T08:42:35.822Z,26.50
2022-09-09T08:45:22.884Z,26.50
2022-09-09T08:48:11.178Z,26.40
2022-09-09T08:50:40.446Z,26.40
2022-09-09T08:53:21.512Z,26.40
2022-09-09T08:55:52.725Z,26.40
2022-09-09T08:58:21.791Z,26.30
2022-09-09T09:00:57.176Z,26.30
2022-09-09T09:03:30.556Z,26.30
2022-09-09T09:06:10.597Z,26.30
2022-09-09T09:08:48.450Z,26.30
2022-09-09T09:11:16.681Z,26.30
2022-09-09T09:14:05.410Z,26.30
2022-09-09T09:16:41.660Z,26.30
2022-09-09T09:19:15.703Z,26.30
2022-09-09T09:21:46.351Z,26.40
2022-09-09T09:24:29.450Z,26.40
2022-09-09T09:27:07.098Z,26.40
2022-09-09T09:30:03.749Z,26.40
2022-09-09T09:32:37.735Z,26.40
2022-09-09T09:35:14.239Z,26.40
2022-09-09T09:40:34.671Z,26.50
2022-09-09T09:43:03.105Z,26.50
2022-09-09T09:45:37.819Z,26.50
2022-09-09T09:48:13.891Z,26.50
2022-09-09T09:50:49.939Z,26.50
2022-09-09T09:53:29.888Z,26.50
2022-09-09T09:56:09.612Z,26.60
2022-09-09T09:58:56.951Z,26.50
2022-09-09T10:01:29.324Z,26.60
2022-09-09T10:04:02.305Z,26.60
2022-09-09T10:06:48.276Z,26.60
2022-09-09T10:09:24.325Z,26.60
2022-09-09T10:12:07.043Z,26.60
2022-09-09T10:14:43.526Z,26.70
2022-09-09T10:17:16.163Z,26.70
2022-09-09T10:19:49.328Z,26.70
2022-09-09T10:22:32.886Z,26.70
2022-09-09T10:25:07.608Z,26.70
2022-09-09T10:28:01.562Z,26.80
2022-09-09T10:30:51.535Z,26.70
2022-09-09T10:33:32.761Z,26.70
2022-09-09T10:36:20.249Z,26.70
2022-09-09T10:38:48.821Z,26.70
2022-09-09T10:41:36.182Z,26.70
2022-09-09T10:44:23.543Z,26.70
2022-09-09T10:47:11.733Z,26.70
2022-09-09T10:49:59.086Z,26.70
2022-09-09T10:52:39.251Z,26.70
2022-09-09T10:55:21.306Z,26.70
2022-09-09T10:57:50.583Z,26.70
2022-09-09T11:00:29.066Z,26.70
2022-09-09T11:03:05.587Z,26.70
2022-09-09T11:05:46.413Z,26.60
2022-09-09T11:08:18.619Z,26.50
2022-09-09T11:10:50.127Z,26.50
2022-09-09T11:13:21.574Z,26.40
2022-09-09T11:15:53.802Z,26.40
2022-09-09T11:18:24.454Z,26.40
2022-09-09T11:20:58.911Z,26.30
2022-09-09T11:23:29.406Z,26.30
2022-09-09T11:25:59.340Z,26.20
2022-09-09T11:28:46.661Z,26.20
2022-09-09T11:31:34.375Z,26.20
2022-09-09T11:34:21.715Z,26.20
2022-09-09T11:37:09.159Z,26.10
2022-09-09T11:39:52.745Z,26.10
2022-09-09T11:46:01.653Z,26.00
2022-09-09T11:48:44.860Z,26.00
2022-09-09T11:51:17.155Z,26.00
2022-09-09T11:53:57.386Z,26.00
2022-09-09T11:56:36.015Z,25.90
2022-09-09T11:59:07.844Z,25.90
2022-09-09T12:01:37.405Z,25.90
2022-09-09T12:04:21.945Z,25.90
2022-09-09T12:07:10.428Z,25.90
2022-09-09T12:09:51.243Z,25.90
2022-09-09T12:12:31.308Z,25.90
2022-09-09T12:15:04.992Z,25.90
2022-09-09T12:17:38.388Z,25.90
2022-09-09T12:20:18.591Z,25.90
2022-09-09T12:23:01.287Z,25.90
2022-09-09T12:25:48.552Z,26.00
2022-09-09T12:28:25.261Z,26.00
2022-09-09T12:31:10.860Z,26.00
2022-09-09T12:33:41.971Z,26.00
2022-09-09T12:36:13.581Z,26.00
2022-09-09T12:38:43.003Z,26.00
2022-09-09T12:41:22.929Z,26.00
2022-09-09T12:43:53.265Z,26.00
2022-09-09T12:46:33.292Z,26.00
2022-09-09T12:49:01.201Z,26.00
2022-09-09T12:51:30.619Z,26.00
2022-09-09T12:53:58.783Z,26.00
2022-09-09T12:56:31.760Z,26.00
2022-09-09T12:59:00.802Z,26.00
2022-09-09T13:01:29.996Z,26.00
2022-09-09T13:03:58.243Z,26.00
2022-09-09T13:06:29.366Z,26.00
2022-09-09T13:08:58.453Z,26.00
2022-09-09T13:11:48.134Z,26.00
2022-09-09T13:14:21.818Z,26.00
2022-09-09T13:16:57.111Z,26.00
2022-09-09T13:19:29.087Z,25.90
2022-09-09T13:21:56.823Z,25.90
2022-09-09T13:24:36.946Z,25.90
2022-09-09T13:27:06.323Z,25.90
2022-09-09T13:29:34.115Z,25.90
2022-09-09T13:32:14.445Z,25.90
2022-09-09T13:34:51.617Z,25.90
2022-09-09T13:37:38.882Z,25.90
2022-09-09T13:40:07.719Z,25.80
2022-09-09T13:42:37.898Z,25.90
2022-09-09T13:45:05.903Z,25.80
2022-09-09T13:47:34.919Z,25.80
2022-09-09T13:50:20.928Z,25.80
2022-09-09T13:52:50.631Z,25.80
2022-09-09T13:55:18.315Z,25.90
2022-09-09T13:57:57.382Z,25.90
2022-09-09T14:00:26.664Z,25.90
2022-09-09T14:02:56.313Z,25.90
2022-09-09T14:05:24.305Z,25.90
2022-09-09T14:07:53.279Z,25.90
2022-09-09T14:10:22.256Z,25.90
2022-09-09T14:12:50.849Z,25.90
2022-09-09T14:15:18.864Z,25.90
2022-09-09T14:17:46.667Z,26.00
2022-09-09T14:20:16.619Z,26.00
2022-09-09T14:22:45.486Z,26.00
2022-09-09T14:25:14.799Z,26.00
2022-09-09T14:27:43.687Z,26.00
2022-09-09T14:30:12.906Z,26.00
2022-09-09T14:32:40.603Z,26.00
2022-09-09T14:35:08.577Z,26.00
2022-09-09T14:37:36.259Z,25.90
2022-09-09T14:40:04.117Z,25.90
2022-09-09T14:42:31.836Z,25.90
2022-09-09T14:44:59.622Z,25.90
2022-09-09T14:47:27.637Z,25.90
2022-09-09T14:49:55.358Z,25.90
2022-09-09T14:52:23.097Z,25.90
2022-09-09T14:54:50.919Z,25.90
2022-09-09T14:57:18.758Z,25.90
2022-09-09T14:59:46.694Z,25.90
2022-09-09T15:02:15.560Z,25.90
2022-09-09T15:04:43.242Z,25.90
2022-09-09T15:07:12.275Z,25.90
2022-09-09T15:09:39.956Z,25.90
2022-09-09T15:12:07.690Z,25.90
2022-09-09T15:14:36.089Z,26.00
2022-09-09T15:17:03.889Z,26.00
2022-09-09T15:19:31.614Z,26.00
2022-09-09T15:22:01.253Z,26.00
2022-09-09T15:24:29.483Z,26.00
2022-09-09T15:26:58.058Z,26.00
2022-09-09T15:29:25.937Z,26.00
2022-09-09T15:31:55.123Z,26.00
2022-09-09T15:34:23.437Z,26.00
2022-09-09T15:36:51.896Z,26.00
2022-09-09T15:39:19.777Z,26.00
2022-09-09T15:41:48.297Z,26.00
2022-09-09T15:44:16.984Z,25.90
2022-09-09T15:46:47.205Z,25.90
2022-09-09T15:49:20.473Z,25.90
2022-09-09T15:51:51.939Z,26.00
2022-09-09T15:54:21.784Z,26.00
2022-09-09T15:56:52.079Z,26.00
2022-09-09T15:59:19.914Z,26.00
2022-09-09T16:01:48.645Z,26.00
2022-09-09T16:04:21.620Z,26.00
2022-09-09T16:06:49.298Z,26.00
2022-09-09T16:09:17.105Z,26.00
2022-09-09T16:11:44.797Z,26.00
2022-09-09T16:14:13.016Z,26.00
2022-09-09T16:16:40.939Z,26.10
2022-09-09T16:19:10.821Z,26.10
2022-09-09T16:21:41.018Z,26.00
2022-09-09T16:24:09.332Z,26.10
2022-09-09T16:26:38.501Z,26.10
2022-09-09T16:29:06.461Z,26.00
2022-09-09T16:31:35.070Z,26.00
2022-09-09T16:34:04.576Z,25.90
2022-09-09T16:36:33.666Z,25.90
2022-09-09T16:39:02.129Z,25.90
2022-09-09T16:41:31.404Z,25.90
2022-09-09T16:44:01.426Z,25.90
2022-09-09T16:46:30.566Z,25.90
2022-09-09T16:49:00.783Z,25.90
2022-09-09T16:51:31.108Z,25.90
2022-09-09T16:54:02.774Z,25.80
2022-09-09T16:56:34.340Z,25.80
2022-09-09T16:59:02.909Z,25.80
2022-09-09T17:01:32.805Z,25.80
2022-09-09T17:04:02.503Z,25.80
2022-09-09T17:06:31.057Z,25.80
2022-09-09T17:09:01.438Z,25.80
2022-09-09T17:11:30.038Z,25.80
2022-09-09T17:13:59.344Z,25.70
2022-09-09T17:16:28.812Z,25.70
2022-09-09T17:18:57.050Z,25.70
2022-09-09T17:21:26.660Z,25.70
2022-09-09T17:23:55.403Z,25.70
2022-09-09T17:26:23.693Z,25.70
2022-09-09T17:28:54.103Z,25.70
2022-09-09T17:31:24.193Z,25.70
2022-09-09T17:33:53.933Z,25.70
2022-09-09T17:36:23.788Z,25.80
2022-09-09T17:38:51.729Z,25.70
2022-09-09T17:41:21.077Z,25.80
2022-09-09T17:43:49.616Z,25.70
2022-09-09T17:46:23.636Z,25.70
2022-09-09T17:48:52.448Z,25.70
2022-09-09T17:51:22.453Z,25.80
2022-09-09T17:53:50.990Z,25.80
2022-09-09T17:56:22.515Z,25.80
2022-09-09T17:58:50.919Z,25.80
2022-09-09T18:01:20.203Z,25.80
2022-09-09T18:03:48.336Z,25.80
2022-09-09T18:06:18.645Z,25.80
2022-09-09T18:08:50.812Z,25.80
2022-09-09T18:11:19.621Z,25.80
2022-09-09T18:13:51.149Z,25.80
2022-09-09T18:16:19.036Z,25.70
2022-09-09T18:18:47.059Z,25.80
2022-09-09T18:21:14.830Z,25.70
2022-09-09T18:23:53.269Z,25.70
2022-09-09T18:26:22.369Z,25.70
2022-09-09T18:28:51.317Z,25.70
2022-09-09T18:31:20.107Z,25.70
2022-09-09T18:33:50.836Z,25.70
2022-09-09T18:36:20.183Z,25.70
2022-09-09T18:38:48.194Z,25.70
2022-09-09T18:41:21.883Z,25.70
2022-09-09T18:43:50.388Z,25.70
2022-09-09T18:46:19.676Z,25.70
2022-09-09T18:48:48.443Z,25.70
2022-09-09T18:51:17.069Z,25.70
2022-09-09T18:53:49.880Z,25.60
2022-09-09T18:56:17.846Z,25.60
2022-09-09T18:58:45.574Z,25.70
2022-09-09T19:01:14.599Z,25.60
2022-09-09T19:03:42.564Z,25.60
2022-09-09T19:06:12.838Z,25.60
2022-09-09T19:08:42.292Z,25.60
2022-09-09T19:11:11.025Z,25.60
2022-09-09T19:13:39.973Z,25.60
2022-09-09T19:16:10.072Z,25.60
2022-09-09T19:18:40.996Z,25.60
2022-09-09T19:21:28.409Z,25.60
2022-09-09T19:24:06.922Z,25.60
2022-09-09T19:26:40.973Z,25.60
2022-09-09T19:29:11.271Z,25.60
2022-09-09T19:31:39.419Z,25.60
2022-09-09T19:34:07.124Z,25.60
2022-09-09T19:36:34.881Z,25.60
2022-09-09T19:39:03.645Z,25.60
2022-09-09T19:41:32.760Z,25.60
2022-09-09T19:44:02.398Z,25.60
2022-09-09T19:46:31.331Z,25.60
2022-09-09T19:48:59.416Z,25.60
2022-09-09T19:51:27.259Z,25.60
2022-09-09T19:53:59.400Z,25.60
2022-09-09T19:56:28.556Z,25.60
2022-09-09T19:58:56.650Z,25.60
2022-09-09T20:01:28.257Z,25.60
2022-09-09T20:03:57.350Z,25.60
2022-09-09T20:06:29.480Z,25.60
2022-09-09T20:08:57.564Z,25.60
2022-09-09T20:11:25.437Z,25.60
2022-09-09T20:13:54.267Z,25.60
2022-09-09T20:16:23.321Z,25.60
2022-09-09T20:18:52.887Z,25.60
2022-09-09T20:21:25.176Z,25.60
2022-09-09T20:23:53.412Z,25.60
2022-09-09T20:26:22.062Z,25.60
2022-09-09T20:28:50.825Z,25.60
2022-09-09T20:31:20.704Z,25.50
2022-09-09T20:33:48.737Z,25.60
2022-09-09T20:36:27.410Z,25.50
2022-09-09T20:39:00.085Z,25.50
2022-09-09T20:41:29.190Z,25.50
2022-09-09T20:44:03.469Z,25.50
2022-09-09T20:46:33.479Z,25.50
2022-09-09T20:49:03.253Z,25.50
2022-09-09T20:51:33.393Z,25.50
2022-09-09T20:54:04.148Z,25.50
2022-09-09T20:56:37.922Z,25.50
2022-09-09T20:59:06.755Z,25.50
2022-09-09T21:01:35.206Z,25.60
2022-09-09T21:04:03.144Z,25.50
2022-09-09T21:06:30.958Z,25.50
2022-09-09T21:08:58.580Z,25.50
2022-09-09T21:11:26.592Z,25.60
2022-09-09T21:13:54.334Z,25.60
2022-09-09T21:16:22.044Z,25.60
2022-09-09T21:18:50.023Z,25.60
2022-09-09T21:21:20.018Z,25.60
2022-09-09T21:23:54.232Z,25.50
2022-09-09T21:26:24.009Z,25.60
2022-09-09T21:28:51.768Z,25.60
2022-09-09T21:31:21.738Z,25.60
2022-09-09T21:33:53.384Z,25.60
2022-09-09T21:36:21.025Z,25.60
2022-09-09T21:38:48.982Z,25.60
2022-09-09T21:41:17.071Z,25.60
2022-09-09T21:43:45.819Z,25.60
2022-09-09T21:46:15.516Z,25.60
2022-09-09T21:48:43.709Z,25.60
2022-09-09T21:51:12.933Z,25.50
2022-09-09T21:53:40.987Z,25.60
2022-09-09T21:56:11.094Z,25.50
2022-09-09T21:58:39.878Z,25.50
2022-09-09T22:01:11.647Z,25.50
2022-09-09T22:03:39.481Z,25.50
2022-09-09T22:06:07.548Z,25.50
2022-09-09T22:08:35.641Z,25.50
2022-09-09T22:11:08.216Z,25.50
2022-09-09T22:13:36.182Z,25.50
2022-09-09T22:16:05.964Z,25.50
2022-09-09T22:18:35.846Z,25.50
2022-09-09T22:21:07.959Z,25.50
2022-09-09T22:23:39.020Z,25.50
2022-09-09T22:26:07.144Z,25.50
2022-09-09T22:28:35.505Z,25.50
2022-09-09T22:31:03.232Z,25.50
2022-09-09T22:33:31.073Z,25.50
2022-09-09T22:35:59.094Z,25.50
2022-09-09T22:38:29.802Z,25.50
2022-09-09T22:40:57.615Z,25.50
2022-09-09T22:43:25.560Z,25.60
2022-09-09T22:45:53.252Z,25.60
2022-09-09T22:48:21.146Z,25.50
2022-09-09T22:50:49.704Z,25.60
2022-09-09T22:53:19.089Z,25.50
2022-09-09T22:56:01.112Z,25.60
2022-09-09T22:58:29.940Z,25.60
2022-09-09T23:01:01.107Z,25.60
2022-09-09T23:03:29.643Z,25.60
2022-09-09T23:05:58.812Z,25.60
2022-09-09T23:08:27.975Z,25.60
2022-09-09T23:10:57.006Z,25.60
2022-09-09T23:13:24.817Z,25.60
2022-09-09T23:15:52.650Z,25.60
2022-09-09T23:18:20.678Z,25.60
2022-09-09T23:21:00.847Z,25.60
2022-09-09T23:23:28.977Z,25.60
2022-09-09T23:25:56.907Z,25.60
2022-09-09T23:28:25.503Z,25.60
2022-09-09T23:30:53.285Z,25.60
2022-09-09T23:33:20.991Z,25.60
2022-09-09T23:35:49.778Z,25.60
2022-09-09T23:38:17.652Z,25.60
2022-09-09T23:40:48.182Z,25.60
2022-09-09T23:43:15.833Z,25.60
2022-09-09T23:45:43.696Z,25.60
2022-09-09T23:48:11.634Z,25.60
2022-09-09T23:50:39.255Z,25.60
2022-09-09T23:53:07.300Z,25.60
2022-09-09T23:55:36.975Z,25.60
2022-09-09T23:58:05.559Z,25.70
